Ever Decent — 9V7952 — position and weather

sailwx.info

Track history (hours):
 
Tides and Currents Weather Stations Pressure Air Temp Water Temp Dewpoint Dewpoint Depression Visibility Wind Speed Wind Dir Waves Ship Positions

Ever Decent

Last reported at 2018-Apr-26 02:03 UTC. Time now 2018-Apr-27 00:58 UTC.
Position N 01°32' E 104°36'.

Length 294 m; draft 11.1 m.

Type: Ship (hazmat cat A). MMSI: 564904000.

Date/timePositionNaut miles runAvg speedWind from/ knotsBaromVisibWave heightAir tempDewpointWater temp
2018-Apr-26 02:03N 01°32' E 104°36'316.7
2018-Apr-26 01:54N 01°30' E 104°35'816.9
2018-Apr-26 01:27N 01°25' E 104°29'816.8
2018-Apr-26 00:58N 01°20' E 104°23'715.9
2018-Apr-26 00:30N 01°17' E 104°16'916.1
2018-Apr-25 23:58N 01°15' E 104°08'612.8
2018-Apr-25 23:30N 01°15' E 104°02'713.2
2018-Apr-25 22:59N 01°13' E 103°55'4 8.1
2018-Apr-25 22:30N 01°15' E 103°51'2 2.6
2018-Apr-25 21:52N 01°16' E 103°50'0 0.0
2018-Apr-25 21:22N 01°16' E 103°50'0 0.0
2018-Apr-25 20:52N 01°16' E 103°50'0 0.0
2018-Apr-25 20:28N 01°16' E 103°50'0 0.0
2018-Apr-25 19:58N 01°16' E 103°50'0 0.0
2018-Apr-25 19:28N 01°16' E 103°50'0 0.0
2018-Apr-25 18:58N 01°16' E 103°50'0 0.0
2018-Apr-25 18:25N 01°16' E 103°50'0 0.0
2018-Apr-25 17:58N 01°16' E 103°50'0 0.0
2018-Apr-25 17:28N 01°16' E 103°50'0 0.0
2018-Apr-25 16:55N 01°16' E 103°50'0 0.0
2018-Apr-25 16:25N 01°16' E 103°50'0 0.0
2018-Apr-25 15:58N 01°16' E 103°50'0 0.0
2018-Apr-25 15:28N 01°16' E 103°50'0 0.0
2018-Apr-25 15:00N 01°16' E 103°50'0 0.0
2018-Apr-25 14:30N 01°16' E 103°50'0 0.0
2018-Apr-25 13:55N 01°16' E 103°50'0 0.0
2018-Apr-25 13:28N 01°16' E 103°50'0 0.0
2018-Apr-25 12:58N 01°16' E 103°50'0 0.0
2018-Apr-25 12:30N 01°16' E 103°50'0 0.0
2018-Apr-25 11:58N 01°16' E 103°50'0 0.0
2018-Apr-25 11:28N 01°16' E 103°50'0 0.0
2018-Apr-25 10:52N 01°16' E 103°50'0 0.0
2018-Apr-25 10:25N 01°16' E 103°50'0 0.0
2018-Apr-25 09:55N 01°16' E 103°50'0 0.0
2018-Apr-25 09:27N 01°16' E 103°50'0 0.4
2018-Apr-25 09:00N 01°16' E 103°50'3 5.7
2018-Apr-25 08:30N 01°14' E 103°53'1 2.7
2018-Apr-25 08:00N 01°13' E 103°54'1 2.9
2018-Apr-25 07:29N 01°12' E 103°53'1 2.9
2018-Apr-25 07:00N 01°11' E 103°52'3 6.5
2018-Apr-25 06:30N 01°10' E 103°49'4 7.5
2018-Apr-25 06:00N 01°08' E 103°46'4 8.0
2018-Apr-25 05:30N 01°05' E 103°43'4 8.3
2018-Apr-25 05:00N 01°03' E 103°40'3 6.6
2018-Apr-25 04:30N 01°04' E 103°36'4 7.1
2018-Apr-25 03:59N 01°06' E 103°33'4 7.2
2018-Apr-25 03:29N 01°08' E 103°30'5 9.6
2018-Apr-25 03:00N 01°11' E 103°26'713.2
2018-Apr-25 02:28N 01°15' E 103°21'613.0
2018-Apr-25 01:59N 01°19' E 103°16'  
Track history (hours):
 
Tides and Currents Weather Stations Pressure Air Temp Water Temp Dewpoint Dewpoint Depression Visibility Wind Speed Wind Dir Waves Ship Positions

Ever Decent

Last reported at 2018-Apr-26 02:03 UTC. Time now 2018-Apr-27 00:59 UTC.
Position N 01°32' E 104°36'.

Length 294 m; draft 11.1 m.

Type: Ship (hazmat cat A). MMSI: 564904000.

Date/timePositionNaut miles runAvg speedWind from/ knotsBaromVisibWave heightAir tempDewpointWater temp
2018-Apr-26 02:03N 01°32' E 104°36'316.7
2018-Apr-26 01:54N 01°30' E 104°35'816.9
2018-Apr-26 01:27N 01°25' E 104°29'816.8
2018-Apr-26 00:58N 01°20' E 104°23'715.9
2018-Apr-26 00:30N 01°17' E 104°16'916.1
2018-Apr-25 23:58N 01°15' E 104°08'612.8
2018-Apr-25 23:30N 01°15' E 104°02'713.2
2018-Apr-25 22:59N 01°13' E 103°55'4 8.1
2018-Apr-25 22:30N 01°15' E 103°51'2 2.6
2018-Apr-25 21:52N 01°16' E 103°50'0 0.0
2018-Apr-25 21:22N 01°16' E 103°50'0 0.0
2018-Apr-25 20:52N 01°16' E 103°50'0 0.0
2018-Apr-25 20:28N 01°16' E 103°50'0 0.0
2018-Apr-25 19:58N 01°16' E 103°50'0 0.0
2018-Apr-25 19:28N 01°16' E 103°50'0 0.0
2018-Apr-25 18:58N 01°16' E 103°50'0 0.0
2018-Apr-25 18:25N 01°16' E 103°50'0 0.0
2018-Apr-25 17:58N 01°16' E 103°50'0 0.0
2018-Apr-25 17:28N 01°16' E 103°50'0 0.0
2018-Apr-25 16:55N 01°16' E 103°50'0 0.0
2018-Apr-25 16:25N 01°16' E 103°50'0 0.0
2018-Apr-25 15:58N 01°16' E 103°50'0 0.0
2018-Apr-25 15:28N 01°16' E 103°50'0 0.0
2018-Apr-25 15:00N 01°16' E 103°50'0 0.0
2018-Apr-25 14:30N 01°16' E 103°50'0 0.0
2018-Apr-25 13:55N 01°16' E 103°50'0 0.0
2018-Apr-25 13:28N 01°16' E 103°50'0 0.0
2018-Apr-25 12:58N 01°16' E 103°50'0 0.0
2018-Apr-25 12:30N 01°16' E 103°50'0 0.0
2018-Apr-25 11:58N 01°16' E 103°50'0 0.0
2018-Apr-25 11:28N 01°16' E 103°50'0 0.0
2018-Apr-25 10:52N 01°16' E 103°50'0 0.0
2018-Apr-25 10:25N 01°16' E 103°50'0 0.0
2018-Apr-25 09:55N 01°16' E 103°50'0 0.0
2018-Apr-25 09:27N 01°16' E 103°50'0 0.4
2018-Apr-25 09:00N 01°16' E 103°50'3 5.7
2018-Apr-25 08:30N 01°14' E 103°53'1 2.7
2018-Apr-25 08:00N 01°13' E 103°54'1 2.9
2018-Apr-25 07:29N 01°12' E 103°53'1 2.9
2018-Apr-25 07:00N 01°11' E 103°52'3 6.5
2018-Apr-25 06:30N 01°10' E 103°49'4 7.5
2018-Apr-25 06:00N 01°08' E 103°46'4 8.0
2018-Apr-25 05:30N 01°05' E 103°43'4 8.3
2018-Apr-25 05:00N 01°03' E 103°40'3 6.6
2018-Apr-25 04:30N 01°04' E 103°36'4 7.1
2018-Apr-25 03:59N 01°06' E 103°33'4 7.2
2018-Apr-25 03:29N 01°08' E 103°30'5 9.6
2018-Apr-25 03:00N 01°11' E 103°26'713.2
2018-Apr-25 02:28N 01°15' E 103°21'613.0
2018-Apr-25 01:59N 01°19' E 103°16'  

Dump ship's entire track history